createdAt,value
2018-12-05T00:02:28.199Z,96.60
2018-12-05T00:05:26.054Z,96.50
2018-12-05T00:08:23.908Z,96.50
2018-12-05T00:11:21.628Z,96.50
2018-12-05T00:14:20.542Z,96.40
2018-12-05T00:17:18.281Z,96.40
2018-12-05T00:20:16.050Z,96.40
2018-12-05T00:23:13.921Z,96.30
2018-12-05T00:26:11.857Z,96.20
2018-12-05T00:29:09.713Z,96.20
2018-12-05T00:32:07.780Z,96.30
2018-12-05T00:35:05.819Z,96.20
2018-12-05T00:38:03.777Z,95.90
2018-12-05T00:41:01.760Z,95.80
2018-12-05T00:43:59.494Z,95.50
2018-12-05T00:54:38.143Z,95.30
2018-12-05T00:57:36.106Z,96.20
2018-12-05T01:00:34.078Z,96.50
2018-12-05T01:03:32.039Z,96.60
2018-12-05T01:06:29.998Z,96.80
2018-12-05T01:09:30.159Z,96.70
2018-12-05T01:12:29.095Z,97.00
2018-12-05T01:15:26.885Z,96.90
2018-12-05T01:18:24.894Z,96.70
2018-12-05T01:21:22.629Z,96.40
2018-12-05T01:24:20.606Z,96.60
2018-12-05T01:27:18.556Z,96.10
2018-12-05T01:30:16.552Z,96.40
2018-12-05T01:33:14.282Z,96.10
2018-12-05T01:36:12.199Z,96.10
2018-12-05T01:39:10.089Z,96.00
2018-12-05T01:42:08.057Z,95.90
2018-12-05T01:45:06.816Z,96.00
2018-12-05T01:48:04.776Z,96.10
2018-12-05T01:51:02.514Z,96.30
2018-12-05T01:54:00.678Z,96.40
2018-12-05T01:56:58.545Z,96.40
2018-12-05T01:59:56.314Z,96.20
2018-12-05T02:02:54.060Z,96.10
2018-12-05T02:05:52.058Z,96.10
2018-12-05T02:08:49.969Z,96.40
2018-12-05T02:11:47.760Z,96.40
2018-12-05T02:14:45.466Z,96.50
2018-12-05T02:17:43.545Z,96.40
2018-12-05T02:20:41.297Z,96.40
2018-12-05T02:23:39.061Z,96.40
2018-12-05T02:26:36.889Z,96.40
2018-12-05T02:33:15.219Z,96.00
2018-12-05T02:36:12.927Z,96.00
2018-12-05T02:39:11.616Z,96.10
2018-12-05T02:42:09.450Z,96.20
2018-12-05T02:45:07.313Z,96.30
2018-12-05T02:48:05.285Z,96.30
2018-12-05T02:51:03.187Z,96.30
2018-12-05T02:54:01.077Z,96.40
2018-12-05T02:56:58.843Z,96.40
2018-12-05T02:59:56.700Z,96.30
2018-12-05T03:02:55.796Z,96.30
2018-12-05T03:05:53.751Z,96.40
2018-12-05T03:08:52.524Z,96.40
2018-12-05T03:11:51.204Z,96.40
2018-12-05T03:14:49.147Z,96.10
2018-12-05T03:17:47.939Z,96.10
2018-12-05T03:20:45.896Z,96.30
2018-12-05T03:23:43.931Z,96.50
2018-12-05T03:26:41.849Z,96.70
2018-12-05T03:29:39.667Z,97.00
2018-12-05T03:32:38.451Z,97.20
2018-12-05T03:35:42.417Z,97.20
2018-12-05T03:38:40.390Z,97.20
2018-12-05T03:41:38.540Z,97.20
2018-12-05T03:44:36.196Z,97.20
2018-12-05T03:47:33.796Z,97.10
2018-12-05T03:50:31.598Z,97.10
2018-12-05T03:53:29.461Z,97.10
2018-12-05T03:56:27.259Z,97.10
2018-12-05T03:59:24.927Z,97.00
2018-12-05T04:02:22.737Z,96.90
2018-12-05T04:05:20.460Z,96.80
2018-12-05T04:08:18.630Z,96.80
2018-12-05T04:11:16.544Z,96.60
2018-12-05T04:14:14.613Z,96.40
2018-12-05T04:17:12.498Z,96.20
2018-12-05T04:20:10.449Z,96.10
2018-12-05T04:23:08.231Z,96.10
2018-12-05T04:26:05.936Z,96.10
2018-12-05T04:29:03.831Z,96.40
2018-12-05T04:32:01.818Z,96.50
2018-12-05T04:34:59.747Z,96.60
2018-12-05T04:37:57.753Z,96.70
2018-12-05T04:40:55.882Z,96.70
2018-12-05T04:43:53.838Z,96.80
2018-12-05T04:46:51.668Z,96.80
2018-12-05T04:49:49.661Z,96.70
2018-12-05T04:52:47.710Z,96.60
2018-12-05T04:55:45.566Z,96.40
2018-12-05T04:58:43.297Z,96.30
2018-12-05T05:01:41.329Z,96.30
2018-12-05T05:04:39.345Z,96.50
2018-12-05T05:07:37.222Z,96.60
2018-12-05T05:10:35.130Z,96.80
2018-12-05T05:13:33.117Z,96.80
2018-12-05T05:16:31.784Z,96.90
2018-12-05T05:19:29.747Z,96.80
2018-12-05T05:22:27.705Z,96.70
2018-12-05T05:25:25.646Z,96.70
2018-12-05T05:28:23.596Z,96.60
2018-12-05T05:31:23.819Z,96.60
2018-12-05T05:34:22.379Z,96.50
2018-12-05T05:37:20.357Z,96.60
2018-12-05T05:40:18.057Z,96.70
2018-12-05T05:43:15.970Z,97.00
2018-12-05T05:46:13.659Z,97.00
2018-12-05T05:49:11.787Z,96.70
2018-12-05T05:52:09.738Z,96.70
2018-12-05T05:55:08.406Z,96.90
2018-12-05T05:58:06.113Z,96.90
2018-12-05T06:01:03.912Z,96.80
2018-12-05T06:04:01.706Z,96.70
2018-12-05T06:06:59.526Z,96.70
2018-12-05T06:09:57.485Z,96.60
2018-12-05T06:12:55.527Z,96.30
2018-12-05T06:15:53.499Z,96.80
2018-12-05T06:18:51.667Z,96.40
2018-12-05T06:21:49.650Z,96.40
2018-12-05T06:24:47.590Z,96.30
2018-12-05T06:27:45.547Z,96.30
2018-12-05T06:30:43.386Z,96.30
2018-12-05T06:33:41.160Z,96.30
2018-12-05T06:36:39.076Z,96.60
2018-12-05T06:39:36.954Z,96.40
2018-12-05T06:42:34.781Z,96.70
2018-12-05T06:45:32.789Z,96.40
2018-12-05T06:48:30.848Z,96.30
2018-12-05T06:51:28.821Z,96.30
2018-12-05T06:54:26.546Z,96.30
2018-12-05T06:57:24.454Z,96.50
2018-12-05T07:00:23.067Z,96.50
2018-12-05T07:03:21.536Z,96.50
2018-12-05T07:06:20.105Z,96.60
2018-12-05T07:09:18.282Z,96.50
2018-12-05T07:12:16.250Z,96.50
2018-12-05T07:15:14.307Z,96.60
2018-12-05T07:18:12.369Z,96.60
2018-12-05T07:21:10.192Z,96.70
2018-12-05T07:24:09.040Z,96.80
2018-12-05T07:27:07.772Z,96.90
2018-12-05T07:30:05.518Z,96.80
2018-12-05T07:33:03.469Z,96.80
2018-12-05T07:36:01.265Z,97.00
2018-12-05T07:38:59.298Z,96.70
2018-12-05T07:41:57.356Z,96.60
2018-12-05T07:44:56.136Z,96.70
2018-12-05T07:47:54.076Z,96.40
2018-12-05T07:50:51.772Z,96.10
2018-12-05T07:53:49.592Z,95.90
2018-12-05T07:56:47.459Z,95.80
2018-12-05T07:59:45.292Z,95.80
2018-12-05T08:02:43.104Z,95.60
2018-12-05T08:05:40.946Z,95.60
2018-12-05T08:08:38.964Z,96.20
2018-12-05T08:11:36.774Z,96.60
2018-12-05T08:14:34.887Z,96.40
2018-12-05T08:17:32.716Z,96.30
2018-12-05T08:20:31.515Z,96.40
2018-12-05T08:23:29.380Z,96.20
2018-12-05T08:26:27.212Z,96.20
2018-12-05T08:29:25.105Z,96.20
2018-12-05T08:32:23.058Z,96.20
2018-12-05T08:35:21.073Z,96.30
2018-12-05T08:38:19.018Z,96.50
2018-12-05T08:41:17.101Z,96.60
2018-12-05T08:44:15.165Z,96.40
2018-12-05T08:47:13.030Z,96.10
2018-12-05T08:50:11.069Z,95.80
2018-12-05T08:53:09.066Z,95.80
2018-12-05T08:56:06.728Z,95.60
2018-12-05T08:59:04.758Z,95.80
2018-12-05T09:02:02.615Z,96.10
2018-12-05T09:05:00.481Z,96.20
2018-12-05T09:07:58.674Z,96.20
2018-12-05T09:10:56.511Z,96.50
2018-12-05T09:13:54.358Z,96.30
2018-12-05T09:16:52.283Z,96.40
2018-12-05T09:19:50.969Z,96.30
2018-12-05T09:22:48.561Z,96.30
2018-12-05T09:25:46.502Z,96.10
2018-12-05T09:28:44.381Z,95.70
2018-12-05T09:31:42.290Z,95.70
2018-12-05T09:34:40.075Z,96.00
2018-12-05T09:37:38.253Z,96.20
2018-12-05T09:40:36.095Z,95.60
2018-12-05T09:43:34.246Z,95.50
2018-12-05T09:46:32.095Z,95.50
2018-12-05T09:49:31.487Z,95.80
2018-12-05T09:52:30.041Z,95.60
2018-12-05T09:55:27.955Z,95.40
2018-12-05T09:58:25.722Z,95.30
2018-12-05T10:01:23.731Z,95.30
2018-12-05T10:04:21.679Z,95.30
2018-12-05T10:07:19.466Z,95.30
2018-12-05T10:10:18.209Z,95.50
2018-12-05T10:13:16.022Z,95.40
2018-12-05T10:16:13.881Z,95.00
2018-12-05T10:19:11.786Z,95.00
2018-12-05T10:22:09.552Z,95.20
2018-12-05T10:25:08.313Z,95.40
2018-12-05T10:28:06.177Z,95.30
2018-12-05T10:31:03.932Z,95.50
2018-12-05T10:34:01.782Z,95.20
2018-12-05T10:36:59.742Z,94.80
2018-12-05T10:39:57.677Z,94.90
2018-12-05T10:42:55.544Z,94.70
2018-12-05T10:45:53.601Z,94.50
2018-12-05T10:48:51.434Z,94.50
2018-12-05T10:51:49.432Z,94.40
2018-12-05T10:54:47.415Z,94.50
2018-12-05T10:57:45.408Z,94.60
2018-12-05T11:00:50.270Z,94.50
2018-12-05T11:03:49.287Z,94.20
2018-12-05T11:10:42.908Z,94.20
2018-12-05T11:17:38.969Z,93.60
2018-12-05T11:20:42.753Z,93.00
2018-12-05T11:23:47.511Z,92.90
2018-12-05T11:26:47.041Z,93.10
2018-12-05T11:29:45.982Z,93.30
2018-12-05T11:32:44.820Z,93.60
2018-12-05T11:35:43.590Z,93.50
2018-12-05T11:38:42.468Z,93.30
2018-12-05T11:41:40.448Z,93.10
2018-12-05T11:47:38.765Z,92.80
2018-12-05T11:50:06.696Z,92.90
2018-12-05T11:52:34.250Z,92.80
2018-12-05T11:55:01.805Z,92.60
2018-12-05T11:57:29.372Z,92.30
2018-12-05T11:59:57.015Z,92.40
2018-12-05T12:02:24.582Z,92.50
2018-12-05T12:04:53.812Z,92.20
2018-12-05T12:07:21.373Z,92.00
2018-12-05T12:09:49.010Z,92.10
2018-12-05T12:12:22.440Z,92.20
2018-12-05T12:14:50.076Z,92.30
2018-12-05T12:17:17.640Z,92.50
2018-12-05T12:19:45.205Z,92.40
2018-12-05T12:22:12.773Z,91.70
2018-12-05T12:24:40.328Z,92.20
2018-12-05T12:27:07.877Z,92.30
2018-12-05T12:29:35.474Z,91.70
2018-12-05T12:32:03.036Z,91.50
2018-12-05T12:34:30.591Z,91.60
2018-12-05T12:36:58.151Z,91.80
2018-12-05T12:39:25.734Z,91.70
2018-12-05T12:41:53.291Z,91.40
2018-12-05T12:44:20.850Z,91.00
2018-12-05T12:46:48.419Z,90.70
2018-12-05T12:49:15.984Z,90.90
2018-12-05T12:51:43.577Z,91.10
2018-12-05T12:54:11.150Z,91.30
2018-12-05T12:56:38.724Z,91.10
2018-12-05T12:59:06.280Z,91.50
2018-12-05T13:01:33.848Z,91.50
2018-12-05T13:04:01.407Z,91.70
2018-12-05T13:06:29.051Z,91.90
2018-12-05T13:08:56.858Z,92.00
2018-12-05T13:11:24.410Z,92.10
2018-12-05T13:13:51.966Z,91.80
2018-12-05T13:16:19.524Z,92.10
2018-12-05T13:18:47.078Z,91.90
2018-12-05T13:21:14.647Z,92.00
2018-12-05T13:23:42.204Z,92.30
2018-12-05T13:26:09.759Z,92.60
2018-12-05T13:28:37.372Z,92.80
2018-12-05T13:31:04.935Z,92.80
2018-12-05T13:33:32.499Z,92.80
2018-12-05T13:36:00.088Z,92.70
2018-12-05T13:38:27.639Z,92.60
2018-12-05T13:40:55.271Z,92.70
2018-12-05T13:43:22.824Z,92.80
2018-12-05T13:45:50.388Z,92.40
2018-12-05T13:48:17.946Z,92.30
2018-12-05T13:50:45.551Z,92.60
2018-12-05T13:53:13.219Z,92.20
2018-12-05T13:55:40.780Z,92.30
2018-12-05T13:58:08.358Z,92.50
2018-12-05T14:00:35.918Z,92.60
2018-12-05T14:03:03.482Z,92.60
2018-12-05T14:05:31.050Z,92.70
2018-12-05T14:07:58.610Z,92.70
2018-12-05T14:10:26.258Z,92.70
2018-12-05T14:12:55.872Z,92.60
2018-12-05T14:15:23.492Z,92.60
2018-12-05T14:17:51.065Z,92.70
2018-12-05T14:20:18.640Z,92.70
2018-12-05T14:22:46.209Z,92.60
2018-12-05T14:25:14.888Z,92.60
2018-12-05T14:27:42.560Z,92.50
2018-12-05T14:30:10.124Z,92.40
2018-12-05T14:32:37.767Z,92.50
2018-12-05T14:35:05.411Z,92.70
2018-12-05T14:37:33.022Z,92.80
2018-12-05T14:40:00.580Z,92.80
2018-12-05T14:42:28.163Z,92.70
2018-12-05T14:44:55.708Z,92.70
2018-12-05T14:47:23.271Z,92.80
2018-12-05T14:49:50.826Z,92.80
2018-12-05T14:52:18.381Z,93.00
2018-12-05T14:54:45.940Z,93.10
2018-12-05T14:57:13.502Z,93.20
2018-12-05T14:59:41.071Z,93.30
2018-12-05T15:02:08.619Z,93.30
2018-12-05T15:04:36.176Z,93.60
2018-12-05T15:07:03.885Z,93.30
2018-12-05T15:09:31.441Z,93.30
2018-12-05T15:11:59.078Z,93.30
2018-12-05T15:14:26.639Z,93.20
2018-12-05T15:16:54.191Z,93.20
2018-12-05T15:19:21.761Z,93.20
2018-12-05T15:21:49.314Z,93.30
2018-12-05T15:24:16.882Z,93.30
2018-12-05T15:26:44.456Z,93.40
2018-12-05T15:29:12.039Z,93.40
2018-12-05T15:31:39.694Z,93.40
2018-12-05T15:34:07.250Z,93.40
2018-12-05T15:36:34.801Z,93.50
2018-12-05T15:39:02.721Z,93.60
2018-12-05T15:41:30.293Z,93.60
2018-12-05T15:43:57.849Z,93.70
2018-12-05T15:46:25.419Z,93.70
2018-12-05T15:48:53.057Z,93.80
2018-12-05T15:51:20.613Z,93.80
2018-12-05T15:53:48.167Z,93.90
2018-12-05T15:56:15.746Z,93.80
2018-12-05T15:58:43.307Z,93.90
2018-12-05T16:01:10.979Z,93.90
2018-12-05T16:03:43.126Z,93.90
2018-12-05T16:06:08.113Z,93.90
2018-12-05T16:08:35.676Z,93.90
2018-12-05T16:11:03.244Z,93.90
2018-12-05T16:13:30.825Z,93.90
2018-12-05T16:15:58.384Z,93.90
2018-12-05T16:18:25.981Z,94.00
2018-12-05T16:20:53.538Z,94.00
2018-12-05T16:23:21.124Z,93.90
2018-12-05T16:25:48.687Z,93.90
2018-12-05T16:28:16.265Z,93.90
2018-12-05T16:30:43.837Z,93.90
2018-12-05T16:33:11.415Z,93.90
2018-12-05T16:35:38.989Z,94.00
2018-12-05T16:38:06.630Z,94.00
2018-12-05T16:40:34.223Z,94.00
2018-12-05T16:43:01.784Z,93.90
2018-12-05T16:45:29.358Z,93.90
2018-12-05T16:47:56.929Z,93.90
2018-12-05T16:50:24.494Z,93.90
2018-12-05T16:52:52.068Z,93.90
2018-12-05T16:55:19.629Z,93.90
2018-12-05T16:57:47.220Z,94.00
2018-12-05T17:00:14.775Z,94.10
2018-12-05T17:02:42.366Z,94.10
2018-12-05T17:05:10.005Z,94.20
2018-12-05T17:07:37.585Z,94.20
2018-12-05T17:10:05.598Z,94.20
2018-12-05T17:12:33.185Z,94.20
2018-12-05T17:15:00.745Z,94.30
2018-12-05T17:17:28.324Z,94.20
2018-12-05T17:19:55.892Z,94.20
2018-12-05T17:22:23.474Z,94.10
2018-12-05T17:24:51.027Z,94.20
2018-12-05T17:27:18.613Z,94.40
2018-12-05T17:29:46.164Z,94.40
2018-12-05T17:32:13.766Z,94.40
2018-12-05T17:34:41.324Z,94.60
2018-12-05T17:37:09.994Z,94.60
2018-12-05T17:39:37.970Z,94.60
2018-12-05T17:42:05.627Z,94.70
2018-12-05T17:44:33.187Z,94.70
2018-12-05T17:47:00.768Z,94.80
2018-12-05T17:49:28.401Z,94.80
2018-12-05T17:51:55.958Z,94.80
2018-12-05T17:54:23.531Z,94.80
2018-12-05T17:56:51.124Z,94.90
2018-12-05T17:59:18.705Z,95.00
2018-12-05T18:01:46.261Z,94.90
2018-12-05T18:04:13.841Z,95.00
2018-12-05T18:06:41.422Z,95.00
2018-12-05T18:09:09.144Z,95.00
2018-12-05T18:11:36.729Z,94.90
2018-12-05T18:14:04.382Z,94.90
2018-12-05T18:16:31.962Z,95.10
2018-12-05T18:18:59.545Z,95.10
2018-12-05T18:21:27.152Z,95.10
2018-12-05T18:23:54.736Z,95.00
2018-12-05T18:26:22.309Z,95.00
2018-12-05T18:28:49.897Z,95.00
2018-12-05T18:31:17.495Z,95.00
2018-12-05T18:33:45.074Z,95.10
2018-12-05T18:36:12.650Z,95.40
2018-12-05T18:38:40.236Z,95.30
2018-12-05T18:41:07.826Z,95.30
2018-12-05T18:43:35.531Z,95.60
2018-12-05T18:46:03.112Z,95.70
2018-12-05T18:48:30.692Z,95.80
2018-12-05T18:50:58.273Z,95.70
2018-12-05T18:53:25.861Z,95.50
2018-12-05T18:55:53.429Z,95.50
2018-12-05T18:58:20.997Z,95.60
2018-12-05T19:00:48.576Z,95.80
2018-12-05T19:03:16.330Z,96.00
2018-12-05T19:05:43.941Z,96.00
2018-12-05T19:08:11.558Z,95.80
2018-12-05T19:10:39.143Z,95.70
2018-12-05T19:13:06.778Z,95.60
2018-12-05T19:15:34.354Z,95.70
2018-12-05T19:18:01.922Z,95.80
2018-12-05T19:20:29.501Z,95.70
2018-12-05T19:22:57.084Z,95.50
2018-12-05T19:25:24.709Z,95.30
2018-12-05T19:27:52.278Z,95.30
2018-12-05T19:30:19.870Z,95.30
2018-12-05T19:32:47.452Z,95.30
2018-12-05T19:35:15.036Z,95.20
2018-12-05T19:37:42.624Z,95.40
2018-12-05T19:40:10.208Z,95.40
2018-12-05T19:42:37.829Z,95.50
2018-12-05T19:45:06.174Z,95.60
2018-12-05T19:47:33.766Z,95.60
2018-12-05T19:50:01.355Z,95.60
2018-12-05T19:52:28.948Z,95.80
2018-12-05T19:54:56.539Z,96.00
2018-12-05T19:57:24.131Z,96.20
2018-12-05T19:59:51.721Z,96.00
2018-12-05T20:02:19.305Z,96.00
2018-12-05T20:04:46.893Z,96.10
2018-12-05T20:07:16.068Z,96.20
2018-12-05T20:09:43.803Z,96.30
2018-12-05T20:12:11.381Z,96.20
2018-12-05T20:14:38.985Z,96.20
2018-12-05T20:17:06.720Z,96.40
2018-12-05T20:19:34.322Z,96.20
2018-12-05T20:22:01.901Z,96.20
2018-12-05T20:24:29.485Z,96.20
2018-12-05T20:29:31.175Z,96.40
2018-12-05T20:31:58.771Z,96.30
2018-12-05T20:34:26.341Z,96.20
2018-12-05T20:36:53.926Z,96.20
2018-12-05T20:39:26.013Z,96.20
2018-12-05T20:41:55.088Z,96.20
2018-12-05T20:44:22.670Z,96.30
2018-12-05T20:46:50.257Z,96.20
2018-12-05T20:49:17.851Z,96.20
2018-12-05T20:51:45.481Z,96.10
2018-12-05T20:54:13.066Z,96.10
2018-12-05T20:56:40.654Z,96.10
2018-12-05T20:59:08.266Z,96.00
2018-12-05T21:01:35.874Z,95.90
2018-12-05T21:04:03.542Z,96.20
2018-12-05T21:06:31.125Z,95.90
2018-12-05T21:08:58.697Z,95.90
2018-12-05T21:11:26.314Z,96.00
2018-12-05T21:13:53.875Z,96.00
2018-12-05T21:16:21.462Z,95.90
2018-12-05T21:18:49.030Z,95.80
2018-12-05T21:21:16.633Z,95.90
2018-12-05T21:23:44.190Z,96.00
2018-12-05T21:26:11.781Z,96.00
2018-12-05T21:28:39.341Z,96.00
2018-12-05T21:31:06.896Z,96.00
2018-12-05T21:33:34.893Z,96.00
2018-12-05T21:36:02.483Z,96.00
2018-12-05T21:38:30.042Z,96.10
2018-12-05T21:40:57.595Z,96.10
2018-12-05T21:43:25.162Z,96.00
2018-12-05T21:45:53.598Z,96.00
2018-12-05T21:48:21.180Z,96.00
2018-12-05T21:50:48.734Z,96.00
2018-12-05T21:53:16.292Z,96.10
2018-12-05T21:55:43.854Z,96.10
2018-12-05T21:58:11.412Z,96.20
2018-12-05T22:00:38.969Z,96.10
2018-12-05T22:03:06.547Z,96.50
2018-12-05T22:05:34.212Z,96.20
2018-12-05T22:08:01.778Z,96.20
2018-12-05T22:10:29.336Z,96.20
2018-12-05T22:12:56.900Z,96.20
2018-12-05T22:15:24.510Z,96.10
2018-12-05T22:17:52.069Z,96.10
2018-12-05T22:20:19.621Z,96.40
2018-12-05T22:22:47.173Z,96.10
2018-12-05T22:25:14.722Z,96.10
2018-12-05T22:27:42.298Z,96.00
2018-12-05T22:30:10.032Z,96.00
2018-12-05T22:32:37.595Z,96.00
2018-12-05T22:35:05.302Z,95.90
2018-12-05T22:37:32.860Z,95.90
2018-12-05T22:40:00.419Z,95.90
2018-12-05T22:42:27.969Z,95.90
2018-12-05T22:44:55.540Z,96.10
2018-12-05T22:47:23.100Z,96.00
2018-12-05T22:49:50.785Z,95.90
2018-12-05T22:52:18.349Z,96.00
2018-12-05T22:54:45.911Z,96.00
2018-12-05T22:57:13.741Z,96.00
2018-12-05T22:59:41.442Z,96.10
2018-12-05T23:02:09.113Z,96.10
2018-12-05T23:04:36.667Z,96.10
2018-12-05T23:07:06.231Z,96.10
2018-12-05T23:09:34.050Z,96.10
2018-12-05T23:12:02.347Z,96.20
2018-12-05T23:14:30.027Z,96.30
2018-12-05T23:16:57.687Z,96.30
2018-12-05T23:19:25.252Z,96.30
2018-12-05T23:21:52.812Z,96.30
2018-12-05T23:24:20.359Z,96.40
2018-12-05T23:26:47.921Z,96.30
2018-12-05T23:29:15.489Z,96.40
2018-12-05T23:31:43.046Z,96.40
2018-12-05T23:34:10.597Z,96.40
2018-12-05T23:36:38.157Z,96.70
2018-12-05T23:39:06.477Z,96.40
2018-12-05T23:41:34.113Z,96.40
2018-12-05T23:44:01.681Z,96.40
2018-12-05T23:46:29.241Z,96.40
2018-12-05T23:48:56.800Z,96.40
2018-12-05T23:51:24.367Z,96.40
2018-12-05T23:53:51.925Z,96.40
2018-12-05T23:56:19.553Z,96.40
2018-12-05T23:58:47.109Z,96.40
